createdAt,value
2017-11-06T00:00:07.837Z,22.8
2017-11-06T00:01:15.921Z,22.7
2017-11-06T00:02:24.009Z,22.8
2017-11-06T00:03:32.100Z,22.8
2017-11-06T00:04:40.190Z,22.7
2017-11-06T00:05:48.276Z,22.7
2017-11-06T00:06:56.365Z,22.6
2017-11-06T00:08:04.455Z,22.7
2017-11-06T00:09:12.777Z,22.7
2017-11-06T00:10:20.626Z,22.6
2017-11-06T00:11:28.714Z,22.6
2017-11-06T00:12:36.820Z,22.7
2017-11-06T00:13:44.888Z,22.7
2017-11-06T00:14:52.974Z,22.6
2017-11-06T00:16:01.061Z,22.6
2017-11-06T00:17:09.149Z,22.6
2017-11-06T00:18:17.234Z,22.6
2017-11-06T00:19:25.322Z,22.6
2017-11-06T00:20:33.409Z,22.6
2017-11-06T00:21:41.497Z,22.6
2017-11-06T00:22:49.591Z,22.6
2017-11-06T00:23:57.673Z,22.6
2017-11-06T00:25:05.761Z,22.6
2017-11-06T00:26:14.044Z,22.6
2017-11-06T00:27:22.137Z,22.5
2017-11-06T00:28:30.227Z,22.6
2017-11-06T00:29:38.309Z,22.6
2017-11-06T00:30:46.395Z,22.6
2017-11-06T00:31:54.483Z,22.6
2017-11-06T00:33:02.618Z,22.6
2017-11-06T00:34:10.658Z,22.6
2017-11-06T00:35:18.744Z,22.5
2017-11-06T00:36:26.835Z,22.6
2017-11-06T00:37:34.919Z,22.6
2017-11-06T00:38:43.011Z,22.5
2017-11-06T00:39:51.099Z,22.5
2017-11-06T00:40:59.191Z,22.5
2017-11-06T00:42:07.273Z,22.5
2017-11-06T00:43:15.361Z,22.5
2017-11-06T00:44:23.448Z,22.5
2017-11-06T00:45:31.534Z,22.6
2017-11-06T00:46:39.622Z,22.6
2017-11-06T00:47:47.709Z,22.5
2017-11-06T00:48:55.795Z,22.5
2017-11-06T00:50:03.882Z,22.4
2017-11-06T00:51:11.968Z,22.4
2017-11-06T00:52:20.056Z,22.4
2017-11-06T00:53:28.144Z,22.4
2017-11-06T00:54:36.232Z,22.4
2017-11-06T00:55:44.324Z,22.4
2017-11-06T00:56:52.404Z,22.4
2017-11-06T00:58:00.491Z,22.4
2017-11-06T00:59:08.577Z,22.4
2017-11-06T01:00:16.690Z,22.4
2017-11-06T01:01:24.770Z,22.4
2017-11-06T01:02:32.860Z,22.4
2017-11-06T01:03:40.948Z,22.3
2017-11-06T01:04:49.047Z,22.3
2017-11-06T01:05:57.127Z,22.3
2017-11-06T01:07:05.215Z,22.3
2017-11-06T01:08:13.302Z,22.3
2017-11-06T01:09:21.408Z,22.2
2017-11-06T01:10:29.476Z,22.2
2017-11-06T01:11:37.563Z,22.2
2017-11-06T01:12:45.647Z,22.3
2017-11-06T01:13:53.736Z,22.3
2017-11-06T01:15:01.822Z,22.3
2017-11-06T01:16:09.916Z,22.1
2017-11-06T01:17:17.995Z,22.2
2017-11-06T01:18:26.085Z,22.2
2017-11-06T01:19:34.179Z,22.2
2017-11-06T01:20:42.264Z,22.3
2017-11-06T01:21:50.358Z,22.2
2017-11-06T01:22:58.449Z,22.2
2017-11-06T01:24:06.530Z,22.1
2017-11-06T01:25:14.622Z,22.2
2017-11-06T01:26:22.703Z,22.2
2017-11-06T01:27:30.793Z,22.1
2017-11-06T01:28:38.875Z,22.1
2017-11-06T01:29:46.961Z,22.1
2017-11-06T01:30:55.047Z,22.0
2017-11-06T01:32:03.137Z,22.1
2017-11-06T01:33:11.220Z,22.1
2017-11-06T01:34:19.309Z,22.1
2017-11-06T01:35:27.396Z,22.1
2017-11-06T01:36:35.484Z,22.0
2017-11-06T01:37:43.573Z,22.1
2017-11-06T01:38:51.656Z,22.1
2017-11-06T01:39:59.740Z,22.1
2017-11-06T01:41:07.831Z,22.0
2017-11-06T01:42:15.915Z,22.1
2017-11-06T01:43:24.002Z,22.0
2017-11-06T01:44:32.093Z,22.0
2017-11-06T01:45:40.182Z,22.0
2017-11-06T01:46:48.263Z,21.9
2017-11-06T01:47:56.348Z,21.9
2017-11-06T01:49:04.437Z,22.0
2017-11-06T01:50:12.521Z,22.0
2017-11-06T01:51:20.609Z,22.0
2017-11-06T01:52:28.696Z,21.9
2017-11-06T01:53:36.783Z,22.0
2017-11-06T01:54:44.873Z,21.9
2017-11-06T01:55:52.957Z,21.9
2017-11-06T01:57:01.042Z,21.9
2017-11-06T01:58:09.129Z,21.9
2017-11-06T01:59:17.215Z,21.8
2017-11-06T02:00:25.298Z,21.8
2017-11-06T02:01:33.392Z,21.9
2017-11-06T02:02:41.492Z,21.8
2017-11-06T02:03:49.569Z,21.8
2017-11-06T02:04:57.653Z,21.8
2017-11-06T02:06:05.738Z,21.8
2017-11-06T02:07:13.831Z,21.8
2017-11-06T02:08:21.914Z,21.8
2017-11-06T02:09:29.997Z,21.8
2017-11-06T02:10:38.086Z,21.8
2017-11-06T02:11:46.173Z,21.7
2017-11-06T02:12:54.689Z,21.8
2017-11-06T02:14:02.352Z,21.8
2017-11-06T02:15:10.431Z,21.7
2017-11-06T02:16:18.516Z,21.8
2017-11-06T02:17:26.602Z,21.7
2017-11-06T02:18:34.688Z,21.7
2017-11-06T02:19:42.774Z,21.7
2017-11-06T02:20:50.860Z,21.6
2017-11-06T02:21:58.947Z,21.7
2017-11-06T02:23:07.036Z,21.6
2017-11-06T02:24:15.119Z,21.7
2017-11-06T02:25:23.208Z,21.7
2017-11-06T02:26:31.294Z,21.6
2017-11-06T02:27:39.388Z,21.5
2017-11-06T02:28:47.465Z,21.7
2017-11-06T02:29:55.550Z,21.7
2017-11-06T02:31:03.642Z,21.6
2017-11-06T02:32:11.741Z,21.7
2017-11-06T02:33:19.810Z,21.6
2017-11-06T02:34:27.908Z,21.5
2017-11-06T02:35:36.009Z,21.6
2017-11-06T02:36:44.081Z,21.7
2017-11-06T02:37:52.167Z,21.6
2017-11-06T02:39:00.255Z,21.6
2017-11-06T02:40:08.345Z,21.6
2017-11-06T02:41:16.450Z,21.6
2017-11-06T02:42:24.527Z,21.6
2017-11-06T02:43:32.613Z,21.6
2017-11-06T02:44:40.705Z,21.5
2017-11-06T02:45:48.795Z,21.6
2017-11-06T02:46:56.883Z,21.6
2017-11-06T02:48:04.964Z,21.5
2017-11-06T02:49:13.045Z,21.5
2017-11-06T02:50:21.142Z,21.5
2017-11-06T02:51:29.231Z,21.5
2017-11-06T02:52:37.306Z,21.5
2017-11-06T02:53:45.390Z,21.4
2017-11-06T02:54:53.486Z,21.4
2017-11-06T02:56:01.570Z,21.4
2017-11-06T02:57:09.653Z,21.4
2017-11-06T02:58:17.743Z,21.4
2017-11-06T02:59:25.829Z,21.4
2017-11-06T03:00:33.913Z,21.4
2017-11-06T03:01:42.001Z,21.4
2017-11-06T03:02:50.098Z,21.3
2017-11-06T03:03:58.183Z,21.3
2017-11-06T03:05:06.279Z,21.4
2017-11-06T03:06:14.347Z,21.4
2017-11-06T03:07:22.433Z,21.3
2017-11-06T03:08:30.519Z,21.3
2017-11-06T03:09:38.605Z,21.4
2017-11-06T03:10:46.692Z,21.3
2017-11-06T03:11:54.778Z,21.3
2017-11-06T03:13:02.865Z,21.4
2017-11-06T03:14:10.950Z,21.3
2017-11-06T03:15:19.037Z,21.2
2017-11-06T03:16:27.124Z,21.2
2017-11-06T03:17:35.211Z,21.2
2017-11-06T03:18:43.295Z,21.2
2017-11-06T03:19:51.381Z,21.2
2017-11-06T03:20:59.466Z,21.2
2017-11-06T03:22:07.553Z,21.2
2017-11-06T03:23:15.640Z,21.2
2017-11-06T03:24:23.723Z,21.1
2017-11-06T03:25:31.810Z,21.2
2017-11-06T03:26:39.896Z,21.2
2017-11-06T03:27:47.979Z,21.1
2017-11-06T03:28:56.069Z,21.1
2017-11-06T03:30:04.156Z,21.1
2017-11-06T03:31:12.241Z,21.1
2017-11-06T03:32:20.325Z,21.1
2017-11-06T03:33:28.419Z,21.1
2017-11-06T03:34:36.522Z,21.0
2017-11-06T03:35:44.587Z,21.1
2017-11-06T03:36:52.674Z,21.1
2017-11-06T03:38:00.769Z,21.1
2017-11-06T03:39:08.844Z,21.0
2017-11-06T03:40:16.930Z,21.0
2017-11-06T03:41:25.028Z,21.0
2017-11-06T03:42:33.126Z,21.0
2017-11-06T03:43:41.211Z,21.0
2017-11-06T03:44:49.300Z,21.0
2017-11-06T03:45:57.386Z,21.0
2017-11-06T03:47:05.471Z,21.0
2017-11-06T03:48:13.556Z,20.9
2017-11-06T03:49:21.640Z,20.9
2017-11-06T03:50:29.729Z,20.9
2017-11-06T03:51:37.815Z,20.9
2017-11-06T03:52:45.900Z,21.0
2017-11-06T03:53:53.986Z,21.0
2017-11-06T03:55:02.073Z,20.9
2017-11-06T03:56:10.157Z,20.9
2017-11-06T03:57:18.244Z,20.9
2017-11-06T03:58:26.331Z,20.9
2017-11-06T03:59:34.415Z,20.9
2017-11-06T04:00:42.498Z,20.8
2017-11-06T04:01:50.622Z,20.8
2017-11-06T04:02:58.678Z,20.8
2017-11-06T04:04:06.762Z,20.8
2017-11-06T04:05:14.850Z,20.8
2017-11-06T04:06:22.942Z,20.8
2017-11-06T04:07:31.025Z,20.8
2017-11-06T04:08:39.103Z,20.7
2017-11-06T04:09:47.190Z,20.8
2017-11-06T04:10:55.275Z,20.8
2017-11-06T04:12:03.367Z,20.7
2017-11-06T04:13:11.452Z,20.8
2017-11-06T04:14:19.534Z,20.8
2017-11-06T04:15:27.620Z,20.6
2017-11-06T04:16:35.707Z,20.7
2017-11-06T04:17:43.789Z,20.7
2017-11-06T04:18:51.874Z,20.7
2017-11-06T04:19:59.959Z,20.6
2017-11-06T04:21:08.046Z,20.6
2017-11-06T04:22:16.132Z,20.6
2017-11-06T04:23:24.219Z,20.6
2017-11-06T04:24:32.304Z,20.6
2017-11-06T04:25:40.386Z,20.6
2017-11-06T04:26:48.473Z,20.5
2017-11-06T04:27:56.558Z,20.5
2017-11-06T04:29:04.640Z,20.5
2017-11-06T04:30:12.760Z,20.6
2017-11-06T04:31:20.811Z,20.5
2017-11-06T04:32:28.899Z,20.5
2017-11-06T04:33:36.984Z,20.5
2017-11-06T04:34:45.074Z,20.5
2017-11-06T04:35:53.157Z,20.5
2017-11-06T04:37:01.239Z,20.5
2017-11-06T04:38:09.552Z,20.5
2017-11-06T04:39:17.636Z,20.6
2017-11-06T04:40:25.724Z,20.5
2017-11-06T04:41:33.811Z,20.3
2017-11-06T04:42:41.900Z,20.5
2017-11-06T04:43:49.980Z,20.5
2017-11-06T04:44:58.064Z,20.5
2017-11-06T04:46:06.150Z,20.4
2017-11-06T04:47:14.233Z,20.4
2017-11-06T04:48:22.327Z,20.5
2017-11-06T04:49:30.403Z,20.4
2017-11-06T04:50:38.488Z,20.4
2017-11-06T04:51:46.579Z,20.4
2017-11-06T04:52:54.660Z,20.4
2017-11-06T04:54:02.744Z,20.4
2017-11-06T04:55:10.841Z,20.3
2017-11-06T04:55:10.861Z,20.3
2017-11-06T04:56:18.916Z,20.3
2017-11-06T04:57:27.009Z,20.3
2017-11-06T04:58:35.091Z,20.3
2017-11-06T04:59:43.178Z,20.3
2017-11-06T05:00:51.265Z,20.3
2017-11-06T05:01:59.348Z,20.3
2017-11-06T05:03:07.432Z,20.3
2017-11-06T05:04:15.517Z,20.2
2017-11-06T05:05:23.603Z,20.2
2017-11-06T05:06:31.684Z,20.2
2017-11-06T05:07:39.872Z,20.2
2017-11-06T05:08:47.858Z,20.2
2017-11-06T05:09:55.954Z,20.2
2017-11-06T05:11:04.038Z,20.1
2017-11-06T05:12:12.122Z,20.2
2017-11-06T05:13:20.209Z,20.2
2017-11-06T05:14:28.293Z,20.2
2017-11-06T05:15:36.399Z,20.1
2017-11-06T05:16:44.462Z,20.1
2017-11-06T05:17:52.547Z,20.1
2017-11-06T05:19:00.633Z,20.1
2017-11-06T05:20:08.721Z,20.1
2017-11-06T05:21:16.815Z,20.1
2017-11-06T05:22:24.898Z,20.1
2017-11-06T05:23:32.982Z,20.1
2017-11-06T05:24:41.066Z,20.1
2017-11-06T05:25:49.143Z,20.0
2017-11-06T05:26:57.235Z,20.0
2017-11-06T05:28:05.318Z,20.1
2017-11-06T05:29:13.404Z,20.0
2017-11-06T05:30:21.493Z,20.0
2017-11-06T05:31:29.578Z,20.0
2017-11-06T05:32:37.663Z,20.0
2017-11-06T05:33:45.747Z,20.0
2017-11-06T05:34:54.107Z,20.0
2017-11-06T05:36:01.920Z,19.9
2017-11-06T05:37:10.005Z,20.0
2017-11-06T05:38:18.086Z,20.0
2017-11-06T05:39:26.194Z,19.9
2017-11-06T05:40:34.256Z,19.9
2017-11-06T05:41:42.384Z,19.9
2017-11-06T05:42:50.446Z,19.9
2017-11-06T05:43:58.529Z,19.9
2017-11-06T05:45:06.599Z,19.9
2017-11-06T05:46:14.684Z,20.0
2017-11-06T05:47:22.769Z,19.9
2017-11-06T05:48:30.866Z,19.9
2017-11-06T05:49:39.083Z,19.9
2017-11-06T05:50:47.044Z,19.9
2017-11-06T05:51:55.131Z,19.9
2017-11-06T05:53:03.246Z,19.9
2017-11-06T05:54:11.300Z,19.9
2017-11-06T05:55:19.385Z,19.9
2017-11-06T05:56:27.471Z,19.9
2017-11-06T05:57:35.555Z,19.9
2017-11-06T05:58:43.638Z,19.9
2017-11-06T05:59:51.726Z,19.9
2017-11-06T06:00:59.811Z,19.9
2017-11-06T06:02:08.479Z,19.9
2017-11-06T06:03:15.982Z,19.9
2017-11-06T06:04:24.067Z,19.9
2017-11-06T06:05:32.157Z,19.9
2017-11-06T06:06:40.238Z,19.8
2017-11-06T06:07:48.342Z,19.9
2017-11-06T06:08:56.409Z,19.9
2017-11-06T06:10:04.500Z,19.9
2017-11-06T06:11:12.580Z,19.9
2017-11-06T06:12:20.665Z,19.9
2017-11-06T06:13:28.753Z,19.9
2017-11-06T06:14:36.859Z,19.9
2017-11-06T06:15:44.920Z,19.8
2017-11-06T06:16:53.007Z,19.9
2017-11-06T06:18:01.094Z,19.8
2017-11-06T06:19:09.178Z,19.9
2017-11-06T06:20:17.264Z,19.9
2017-11-06T06:21:25.361Z,19.9
2017-11-06T06:22:33.441Z,19.9
2017-11-06T06:23:41.539Z,19.9
2017-11-06T06:24:49.611Z,19.9
2017-11-06T06:25:57.692Z,19.9
2017-11-06T06:27:05.782Z,19.9
2017-11-06T06:28:13.874Z,19.9
2017-11-06T06:29:22.326Z,19.9
2017-11-06T06:30:30.410Z,19.9
2017-11-06T06:31:38.496Z,19.9
2017-11-06T06:32:46.582Z,19.9
2017-11-06T06:33:54.668Z,19.9
2017-11-06T06:35:02.753Z,19.9
2017-11-06T06:37:18.934Z,19.9
2017-11-06T06:38:27.015Z,19.9
2017-11-06T06:39:35.101Z,20.0
2017-11-06T06:40:43.189Z,19.9
2017-11-06T06:41:51.271Z,19.9
2017-11-06T06:42:59.364Z,19.9
2017-11-06T06:44:07.450Z,19.9
2017-11-06T06:45:15.532Z,19.9
2017-11-06T06:46:23.619Z,19.9
2017-11-06T06:47:31.706Z,20.0
2017-11-06T06:48:39.789Z,20.0
2017-11-06T06:49:47.875Z,19.9
2017-11-06T06:50:55.962Z,19.9
2017-11-06T06:52:04.046Z,19.9
2017-11-06T06:53:12.130Z,20.0
2017-11-06T06:54:20.233Z,20.0
2017-11-06T06:55:28.301Z,20.0
2017-11-06T06:56:36.395Z,20.0
2017-11-06T06:57:44.479Z,20.0
2017-11-06T06:58:52.567Z,20.0
2017-11-06T07:00:00.652Z,20.0
2017-11-06T07:01:08.734Z,20.0
2017-11-06T07:02:16.821Z,20.0
2017-11-06T07:03:24.911Z,19.9
2017-11-06T07:04:33.001Z,20.0
2017-11-06T07:05:41.162Z,20.0
2017-11-06T07:06:49.246Z,20.0
2017-11-06T07:07:57.337Z,20.1
2017-11-06T07:09:05.428Z,20.0
2017-11-06T07:10:13.503Z,20.0
2017-11-06T07:11:21.589Z,20.0
2017-11-06T07:12:29.671Z,20.1
2017-11-06T07:13:37.757Z,20.0
2017-11-06T07:14:45.844Z,20.0
2017-11-06T07:15:53.956Z,20.0
2017-11-06T07:17:02.016Z,20.0
2017-11-06T07:18:10.100Z,20.1
2017-11-06T07:19:18.186Z,20.0
2017-11-06T07:20:26.271Z,20.0
2017-11-06T07:21:34.356Z,20.0
2017-11-06T07:22:42.440Z,20.0
2017-11-06T07:23:50.785Z,20.1
2017-11-06T07:24:58.611Z,20.1
2017-11-06T07:26:06.699Z,20.0
2017-11-06T07:27:14.812Z,20.0
2017-11-06T07:28:22.873Z,20.0
2017-11-06T07:29:30.962Z,20.0
2017-11-06T07:30:39.038Z,20.0
2017-11-06T07:31:47.123Z,20.0
2017-11-06T07:32:55.208Z,20.0
2017-11-06T07:34:03.295Z,20.1
2017-11-06T07:35:11.380Z,20.0
2017-11-06T07:36:19.471Z,20.1
2017-11-06T07:37:27.551Z,20.0
2017-11-06T07:38:35.637Z,20.0
2017-11-06T07:39:43.723Z,20.1
2017-11-06T07:40:51.805Z,20.0
2017-11-06T07:41:59.894Z,20.0
2017-11-06T07:43:07.980Z,20.1
2017-11-06T07:44:16.066Z,20.0
2017-11-06T07:45:24.155Z,20.0
2017-11-06T07:46:32.245Z,20.1
2017-11-06T07:47:40.335Z,20.1
2017-11-06T07:48:48.413Z,20.1
2017-11-06T07:49:56.498Z,20.0
2017-11-06T07:51:04.592Z,20.0
2017-11-06T07:52:12.678Z,20.0
2017-11-06T07:53:20.763Z,20.0
2017-11-06T07:54:28.849Z,20.0
2017-11-06T07:55:36.938Z,20.0
2017-11-06T07:56:45.019Z,20.0
2017-11-06T07:57:53.107Z,20.0
2017-11-06T07:59:01.188Z,20.0
2017-11-06T08:00:09.275Z,20.0
2017-11-06T08:01:17.362Z,20.0
2017-11-06T08:02:25.446Z,20.0
2017-11-06T08:03:33.537Z,20.0
2017-11-06T08:04:41.616Z,20.0
2017-11-06T08:05:49.701Z,20.0
2017-11-06T08:06:57.788Z,20.0
2017-11-06T08:08:05.874Z,20.0
2017-11-06T08:09:13.957Z,20.0
2017-11-06T08:10:22.067Z,19.9
2017-11-06T08:11:30.129Z,20.0
2017-11-06T08:12:38.215Z,19.9
2017-11-06T08:13:46.299Z,20.0
2017-11-06T08:14:54.386Z,20.0
2017-11-06T08:16:02.470Z,20.0
2017-11-06T08:17:10.555Z,20.0
2017-11-06T08:18:18.640Z,19.9
2017-11-06T08:19:26.724Z,20.0
2017-11-06T08:20:34.815Z,20.0
2017-11-06T08:21:42.898Z,20.0
2017-11-06T08:22:50.982Z,19.9
2017-11-06T08:23:59.070Z,19.9
2017-11-06T08:25:07.155Z,20.0
2017-11-06T08:26:15.240Z,19.9
2017-11-06T08:27:23.322Z,20.0
2017-11-06T08:28:31.409Z,20.0
2017-11-06T08:29:39.496Z,19.9
2017-11-06T08:30:47.593Z,20.0
2017-11-06T08:31:55.683Z,19.9
2017-11-06T08:33:03.770Z,20.0
2017-11-06T08:34:11.855Z,20.0
2017-11-06T08:35:19.940Z,20.0
2017-11-06T08:36:28.031Z,20.0
2017-11-06T08:37:36.252Z,20.0
2017-11-06T08:38:44.336Z,20.0
2017-11-06T08:39:52.417Z,19.9
2017-11-06T08:41:00.502Z,20.0
2017-11-06T08:42:08.588Z,20.0
2017-11-06T08:43:16.672Z,19.9
2017-11-06T08:44:24.757Z,19.9
2017-11-06T08:45:32.843Z,19.9
2017-11-06T08:46:40.930Z,19.9
2017-11-06T08:47:49.016Z,19.9
2017-11-06T08:48:57.100Z,19.9
2017-11-06T08:50:05.184Z,19.9
2017-11-06T08:51:13.273Z,19.9
2017-11-06T08:52:21.354Z,19.9
2017-11-06T08:53:29.441Z,19.9
2017-11-06T08:54:37.562Z,19.9
2017-11-06T08:55:45.621Z,19.9
2017-11-06T08:56:53.733Z,19.9
2017-11-06T08:58:01.790Z,19.9
2017-11-06T08:59:09.880Z,19.9
2017-11-06T09:00:17.964Z,19.9
2017-11-06T09:01:26.048Z,19.8
2017-11-06T09:02:34.135Z,19.9
2017-11-06T09:03:42.220Z,19.9
2017-11-06T09:04:50.307Z,19.9
2017-11-06T09:05:58.392Z,19.8
2017-11-06T09:07:06.482Z,19.9
2017-11-06T09:08:14.561Z,19.9
2017-11-06T09:09:22.645Z,19.8
2017-11-06T09:10:30.733Z,19.7
2017-11-06T09:11:38.849Z,19.8
2017-11-06T09:12:46.903Z,19.8
2017-11-06T09:13:54.988Z,19.8
2017-11-06T09:15:03.074Z,19.7
2017-11-06T09:16:11.162Z,19.8
2017-11-06T09:17:19.244Z,19.8
2017-11-06T09:18:27.338Z,19.7
2017-11-06T09:19:35.430Z,19.8
2017-11-06T09:20:43.515Z,19.7
2017-11-06T09:21:51.602Z,19.8
2017-11-06T09:22:59.688Z,19.7
2017-11-06T09:24:07.777Z,19.6
2017-11-06T09:25:15.855Z,19.7
2017-11-06T09:26:23.942Z,19.7
2017-11-06T09:27:32.026Z,19.8
2017-11-06T09:28:40.112Z,19.7
2017-11-06T09:29:48.472Z,19.7
2017-11-06T09:30:56.555Z,19.7
2017-11-06T09:32:04.639Z,19.7
2017-11-06T09:33:12.727Z,19.7
2017-11-06T09:34:20.817Z,19.7
2017-11-06T09:35:28.897Z,19.7
2017-11-06T09:36:36.980Z,19.7
2017-11-06T09:37:45.070Z,19.7
2017-11-06T09:38:53.152Z,19.7
2017-11-06T09:40:01.715Z,19.7
2017-11-06T09:41:09.333Z,19.7
2017-11-06T09:42:17.414Z,19.7
2017-11-06T09:43:25.494Z,19.7
2017-11-06T09:44:33.579Z,19.6
2017-11-06T09:45:41.664Z,19.5
2017-11-06T09:46:49.751Z,19.6
2017-11-06T09:47:57.840Z,19.7
2017-11-06T09:49:05.918Z,19.6
2017-11-06T09:50:14.001Z,19.6
2017-11-06T09:51:22.086Z,19.6
2017-11-06T09:52:30.261Z,19.7
2017-11-06T09:53:38.257Z,19.6
2017-11-06T09:54:46.343Z,19.6
2017-11-06T09:55:54.431Z,19.6
2017-11-06T09:57:02.514Z,19.6
2017-11-06T09:58:10.654Z,19.7
2017-11-06T09:59:18.682Z,19.6
2017-11-06T10:00:26.770Z,19.6
2017-11-06T10:01:34.854Z,19.6
2017-11-06T10:02:42.940Z,19.6
2017-11-06T10:03:51.032Z,19.6
2017-11-06T10:04:59.117Z,19.6
2017-11-06T10:06:07.206Z,19.6
2017-11-06T10:07:15.284Z,19.5
2017-11-06T10:08:23.369Z,19.6
2017-11-06T10:09:31.453Z,19.6
2017-11-06T10:10:39.538Z,19.6
2017-11-06T10:11:47.624Z,19.5
2017-11-06T10:12:55.710Z,19.5
2017-11-06T10:14:03.796Z,19.6
2017-11-06T10:15:11.882Z,19.4
2017-11-06T10:16:19.964Z,19.5
2017-11-06T10:17:28.064Z,19.6
2017-11-06T10:18:36.149Z,19.5
2017-11-06T10:19:44.231Z,19.5
2017-11-06T10:20:52.555Z,19.6
2017-11-06T10:22:00.677Z,19.5
2017-11-06T10:23:08.763Z,19.6
2017-11-06T10:24:16.857Z,19.6
2017-11-06T10:25:24.945Z,19.6
2017-11-06T10:26:33.027Z,19.5
2017-11-06T10:27:41.120Z,19.6
2017-11-06T10:28:49.196Z,19.4
2017-11-06T10:29:57.280Z,19.5
2017-11-06T10:31:05.361Z,19.5
2017-11-06T10:32:13.455Z,19.4
2017-11-06T10:33:21.577Z,19.5
2017-11-06T10:34:29.620Z,19.4
2017-11-06T10:35:37.710Z,19.4
2017-11-06T10:36:45.793Z,19.5
2017-11-06T10:37:53.879Z,19.5
2017-11-06T10:39:01.956Z,19.4
2017-11-06T10:40:10.055Z,19.5
2017-11-06T10:41:18.147Z,19.4
2017-11-06T10:42:26.226Z,19.4
2017-11-06T10:43:34.311Z,19.4
2017-11-06T10:44:42.394Z,19.5
2017-11-06T10:45:50.479Z,19.5
2017-11-06T10:46:58.565Z,19.4
2017-11-06T10:48:06.650Z,19.4
2017-11-06T10:49:14.735Z,19.4
2017-11-06T10:50:22.818Z,19.4
2017-11-06T10:51:30.914Z,19.3
2017-11-06T10:52:39.010Z,19.4
2017-11-06T10:53:47.095Z,19.4
2017-11-06T10:54:55.181Z,19.3
2017-11-06T10:56:03.269Z,19.4
2017-11-06T10:57:11.352Z,19.4
2017-11-06T10:58:19.437Z,19.4
2017-11-06T10:59:27.519Z,19.4
2017-11-06T11:00:35.628Z,19.4
2017-11-06T11:01:43.692Z,19.3
2017-11-06T11:02:51.776Z,19.4
2017-11-06T11:03:59.859Z,19.4
2017-11-06T11:05:07.952Z,19.3
2017-11-06T11:06:16.036Z,19.4
2017-11-06T11:07:24.127Z,19.4
2017-11-06T11:08:32.218Z,19.4
2017-11-06T11:09:40.743Z,19.4
2017-11-06T11:10:48.828Z,19.4
2017-11-06T11:11:56.911Z,19.4
2017-11-06T11:13:05.006Z,19.4
2017-11-06T11:14:13.092Z,19.4
2017-11-06T11:15:21.180Z,19.3
2017-11-06T11:16:29.263Z,19.2
2017-11-06T11:17:37.345Z,19.4
2017-11-06T11:18:45.430Z,19.2
2017-11-06T11:19:53.522Z,19.3
2017-11-06T11:21:01.603Z,19.3
2017-11-06T11:22:09.684Z,19.3
2017-11-06T11:23:17.789Z,19.4
2017-11-06T11:24:25.854Z,19.3
2017-11-06T11:25:33.948Z,19.2
2017-11-06T11:26:42.035Z,19.3
2017-11-06T11:27:50.118Z,19.2
2017-11-06T11:28:58.201Z,19.2
2017-11-06T11:30:06.287Z,19.3
2017-11-06T11:31:14.370Z,19.3
2017-11-06T11:32:22.459Z,19.2
2017-11-06T11:33:30.548Z,19.2
2017-11-06T11:34:38.723Z,19.3
2017-11-06T11:35:46.718Z,19.3
2017-11-06T11:36:54.799Z,19.2
2017-11-06T11:38:02.886Z,19.2
2017-11-06T11:39:10.967Z,19.2
2017-11-06T11:40:19.059Z,19.2
2017-11-06T11:41:27.140Z,19.2
2017-11-06T11:42:35.224Z,19.2
2017-11-06T11:43:43.308Z,19.1
2017-11-06T11:44:51.400Z,19.2
2017-11-06T11:45:59.487Z,19.2
2017-11-06T11:47:07.580Z,19.1
2017-11-06T11:48:15.667Z,19.1
2017-11-06T11:49:23.758Z,19.1
2017-11-06T11:50:31.838Z,19.1
2017-11-06T11:51:39.929Z,19.1
2017-11-06T11:52:48.015Z,19.1
2017-11-06T11:53:56.100Z,19.1
2017-11-06T11:55:04.193Z,19.1
2017-11-06T11:56:12.270Z,19.1
2017-11-06T11:57:20.356Z,19.1
2017-11-06T11:58:28.440Z,19.1
2017-11-06T11:59:36.525Z,19.1
2017-11-06T12:00:44.610Z,19.1
2017-11-06T12:01:52.696Z,19.1
2017-11-06T12:03:00.783Z,19.1
2017-11-06T12:04:08.868Z,19.1
2017-11-06T12:05:16.962Z,19.1
2017-11-06T12:06:25.046Z,19.1
2017-11-06T12:07:33.130Z,19.1
2017-11-06T12:08:41.214Z,19.1
2017-11-06T12:09:49.299Z,19.0
2017-11-06T12:10:57.381Z,19.1
2017-11-06T12:12:05.470Z,19.1
2017-11-06T12:13:13.554Z,19.1
2017-11-06T12:14:21.638Z,19.0
2017-11-06T12:15:29.722Z,19.0
2017-11-06T12:16:37.818Z,18.9
2017-11-06T12:17:45.889Z,18.9
2017-11-06T12:18:53.974Z,19.0
2017-11-06T12:20:02.059Z,19.0
2017-11-06T12:21:10.145Z,19.0
2017-11-06T12:22:18.228Z,19.0
2017-11-06T12:23:26.314Z,18.9
2017-11-06T12:24:34.398Z,18.9
2017-11-06T12:25:42.482Z,19.0
2017-11-06T12:26:50.569Z,18.9
2017-11-06T12:27:58.650Z,18.9
2017-11-06T12:29:06.734Z,18.9
2017-11-06T12:30:14.816Z,18.9
2017-11-06T12:31:22.907Z,18.9
2017-11-06T12:32:30.986Z,18.9
2017-11-06T12:33:39.075Z,19.0
2017-11-06T12:34:47.158Z,18.9
2017-11-06T12:35:55.241Z,19.0
2017-11-06T12:37:03.328Z,18.9
2017-11-06T12:38:11.410Z,18.9
2017-11-06T12:39:19.495Z,18.8
2017-11-06T12:40:27.577Z,18.8
2017-11-06T12:41:35.662Z,18.8
2017-11-06T12:42:43.751Z,18.9
2017-11-06T12:43:51.839Z,18.8
2017-11-06T12:44:59.925Z,18.8
2017-11-06T12:46:08.001Z,18.8
2017-11-06T12:47:16.089Z,18.8
2017-11-06T12:48:24.170Z,18.8
2017-11-06T12:49:32.255Z,18.8
2017-11-06T12:50:40.336Z,18.7
2017-11-06T12:51:48.418Z,18.8
2017-11-06T12:52:56.505Z,18.8
2017-11-06T12:54:04.594Z,18.8
2017-11-06T12:55:12.676Z,18.8
2017-11-06T12:56:20.762Z,18.7
2017-11-06T12:57:28.845Z,18.8
2017-11-06T12:58:36.930Z,18.7
2017-11-06T12:59:45.013Z,18.8
2017-11-06T13:00:53.102Z,18.8
2017-11-06T13:02:01.217Z,18.7
2017-11-06T13:03:09.270Z,18.8
2017-11-06T13:04:17.383Z,18.8
2017-11-06T13:05:25.441Z,18.7
2017-11-06T13:06:33.523Z,18.8
2017-11-06T13:07:41.607Z,18.8
2017-11-06T13:08:49.690Z,18.8
2017-11-06T13:09:57.774Z,18.7
2017-11-06T13:11:05.862Z,18.8
2017-11-06T13:12:13.947Z,18.7
2017-11-06T13:13:22.035Z,18.7
2017-11-06T13:14:30.115Z,18.7
2017-11-06T13:15:38.198Z,18.7
2017-11-06T13:16:46.286Z,18.7
2017-11-06T13:17:54.377Z,18.7
2017-11-06T13:19:02.461Z,18.7
2017-11-06T13:20:10.543Z,18.7
2017-11-06T13:21:18.620Z,18.7
2017-11-06T13:22:26.705Z,18.6
2017-11-06T13:23:34.786Z,18.7
2017-11-06T13:24:42.897Z,18.7
2017-11-06T13:25:50.960Z,18.7
2017-11-06T13:26:59.043Z,18.7
2017-11-06T13:28:07.125Z,18.7
2017-11-06T13:29:15.211Z,18.6
2017-11-06T13:30:23.296Z,18.7
2017-11-06T13:31:31.381Z,18.7
2017-11-06T13:32:39.463Z,18.7
2017-11-06T13:33:47.553Z,18.6
2017-11-06T13:34:55.661Z,18.6
2017-11-06T13:36:03.719Z,18.6
2017-11-06T13:37:11.802Z,18.6
2017-11-06T13:38:19.883Z,18.6
2017-11-06T13:39:27.968Z,18.6
2017-11-06T13:40:36.052Z,18.6
2017-11-06T13:41:44.141Z,18.6
2017-11-06T13:42:52.221Z,18.6
2017-11-06T13:44:00.306Z,18.6
2017-11-06T13:45:08.397Z,18.5
2017-11-06T13:46:16.487Z,18.5
2017-11-06T13:47:24.566Z,18.5
2017-11-06T13:48:32.657Z,18.6
2017-11-06T13:49:40.734Z,18.5
2017-11-06T13:50:48.821Z,18.5
2017-11-06T13:51:56.905Z,18.6
2017-11-06T13:53:04.988Z,18.5
2017-11-06T13:54:13.079Z,18.5
2017-11-06T13:55:21.160Z,18.4
2017-11-06T13:56:29.253Z,18.4
2017-11-06T13:57:37.329Z,18.5
2017-11-06T13:58:45.414Z,18.6
2017-11-06T13:59:53.499Z,18.5
2017-11-06T14:01:01.583Z,18.6
2017-11-06T14:02:09.668Z,18.6
2017-11-06T14:03:17.751Z,18.6
2017-11-06T14:04:25.832Z,18.4
2017-11-06T14:05:33.937Z,18.5
2017-11-06T14:06:42.016Z,18.5
2017-11-06T14:07:50.091Z,18.4
2017-11-06T14:08:58.175Z,18.4
2017-11-06T14:10:06.263Z,18.5
2017-11-06T14:11:14.345Z,18.4
2017-11-06T14:12:22.436Z,18.5
2017-11-06T14:13:30.512Z,18.4
2017-11-06T14:14:38.596Z,18.5
2017-11-06T14:15:46.678Z,18.4
2017-11-06T14:16:54.763Z,18.4
2017-11-06T14:18:02.848Z,18.4
2017-11-06T14:19:10.934Z,18.4
2017-11-06T14:20:19.020Z,18.3
2017-11-06T14:21:27.103Z,18.3
2017-11-06T14:22:35.186Z,18.3
2017-11-06T14:23:43.272Z,18.3
2017-11-06T14:24:51.354Z,18.3
2017-11-06T14:25:59.441Z,18.3
2017-11-06T14:27:07.525Z,18.3
2017-11-06T14:28:15.607Z,18.3
2017-11-06T14:29:23.690Z,18.3
2017-11-06T14:30:31.778Z,18.3
2017-11-06T14:31:39.861Z,18.3
2017-11-06T14:32:47.941Z,18.4
2017-11-06T14:33:56.026Z,18.3
2017-11-06T14:35:04.113Z,18.3
2017-11-06T14:36:12.195Z,18.3
2017-11-06T14:37:20.280Z,18.3
2017-11-06T14:38:28.363Z,18.2
2017-11-06T14:39:37.978Z,18.2
2017-11-06T14:40:46.070Z,18.2
2017-11-06T14:41:54.155Z,18.2
2017-11-06T14:43:02.237Z,18.2
2017-11-06T14:44:10.320Z,18.2
2017-11-06T14:45:18.406Z,18.2
2017-11-06T14:46:26.489Z,18.1
2017-11-06T14:47:34.590Z,18.2
2017-11-06T14:48:42.657Z,18.2
2017-11-06T14:49:50.741Z,18.2
2017-11-06T14:50:58.827Z,18.2
2017-11-06T14:52:06.908Z,18.2
2017-11-06T14:53:14.998Z,18.2
2017-11-06T14:54:23.082Z,18.2
2017-11-06T14:55:31.160Z,18.2
2017-11-06T14:56:39.244Z,18.2
2017-11-06T14:57:47.326Z,18.1
2017-11-06T14:58:55.412Z,18.1
2017-11-06T15:00:03.506Z,18.1
2017-11-06T15:01:11.590Z,18.1
2017-11-06T15:02:19.674Z,18.1
2017-11-06T15:03:27.757Z,18.0
2017-11-06T15:04:35.842Z,18.2
2017-11-06T15:05:43.929Z,18.1